sensor_id;sensor_type;location;lat;lon;timestamp;P1;durP1;ratioP1;P2;durP2;ratioP2
35675;SDS011;21790;42.668;23.298;2022-12-10T00:00:11;22.77;;;7.80;;
35675;SDS011;21790;42.668;23.298;2022-12-10T00:10:22;25.25;;;7.55;;
35675;SDS011;21790;42.668;23.298;2022-12-10T00:13:02;19.17;;;7.18;;
35675;SDS011;21790;42.668;23.298;2022-12-10T00:18:53;21.17;;;7.53;;
35675;SDS011;21790;42.668;23.298;2022-12-10T00:24:30;20.92;;;7.57;;
35675;SDS011;21790;42.668;23.298;2022-12-10T00:27:08;23.38;;;7.97;;
35675;SDS011;21790;42.668;23.298;2022-12-10T00:33:03;25.42;;;7.22;;
35675;SDS011;21790;42.668;23.298;2022-12-10T00:51:39;25.77;;;7.85;;
35675;SDS011;21790;42.668;23.298;2022-12-10T00:54:06;22.13;;;8.52;;
35675;SDS011;21790;42.668;23.298;2022-12-10T00:56:33;15.15;;;6.38;;
35675;SDS011;21790;42.668;23.298;2022-12-10T01:36:26;22.90;;;7.68;;
35675;SDS011;21790;42.668;23.298;2022-12-10T01:41:54;24.52;;;7.20;;
35675;SDS011;21790;42.668;23.298;2022-12-10T01:47:03;19.50;;;6.18;;
35675;SDS011;21790;42.668;23.298;2022-12-10T01:49:38;20.38;;;6.90;;
35675;SDS011;21790;42.668;23.298;2022-12-10T01:52:30;20.25;;;6.93;;
35675;SDS011;21790;42.668;23.298;2022-12-10T01:58:16;19.52;;;6.80;;
35675;SDS011;21790;42.668;23.298;2022-12-10T02:03:20;18.08;;;6.53;;
35675;SDS011;21790;42.668;23.298;2022-12-10T02:11:48;15.77;;;6.23;;
35675;SDS011;21790;42.668;23.298;2022-12-10T02:14:23;14.88;;;6.80;;
35675;SDS011;21790;42.668;23.298;2022-12-10T02:23:22;20.17;;;6.15;;
35675;SDS011;21790;42.668;23.298;2022-12-10T02:26:12;15.75;;;6.10;;
35675;SDS011;21790;42.668;23.298;2022-12-10T02:32:18;13.48;;;5.40;;
35675;SDS011;21790;42.668;23.298;2022-12-10T02:40:48;16.70;;;5.55;;
35675;SDS011;21790;42.668;23.298;2022-12-10T02:43:45;16.73;;;6.10;;
35675;SDS011;21790;42.668;23.298;2022-12-10T02:52:29;19.45;;;5.95;;
35675;SDS011;21790;42.668;23.298;2022-12-10T02:54:57;10.75;;;5.05;;
35675;SDS011;21790;42.668;23.298;2022-12-10T02:57:45;18.77;;;5.55;;
35675;SDS011;21790;42.668;23.298;2022-12-10T03:00:31;17.38;;;6.88;;
35675;SDS011;21790;42.668;23.298;2022-12-10T03:18:43;19.83;;;5.90;;
35675;SDS011;21790;42.668;23.298;2022-12-10T03:21:21;12.48;;;6.10;;
35675;SDS011;21790;42.668;23.298;2022-12-10T03:33:18;21.13;;;6.43;;
35675;SDS011;21790;42.668;23.298;2022-12-10T03:35:52;16.65;;;5.85;;
35675;SDS011;21790;42.668;23.298;2022-12-10T03:38:20;20.02;;;5.72;;
35675;SDS011;21790;42.668;23.298;2022-12-10T03:43:33;14.60;;;5.15;;
35675;SDS011;21790;42.668;23.298;2022-12-10T03:49:09;13.02;;;5.20;;
35675;SDS011;21790;42.668;23.298;2022-12-10T03:55:10;9.88;;;4.32;;
35675;SDS011;21790;42.668;23.298;2022-12-10T04:19:17;9.70;;;4.60;;
35675;SDS011;21790;42.668;23.298;2022-12-10T04:21:44;10.10;;;4.57;;
35675;SDS011;21790;42.668;23.298;2022-12-10T04:40:53;12.77;;;4.90;;
35675;SDS011;21790;42.668;23.298;2022-12-10T04:49:29;12.18;;;5.00;;
35675;SDS011;21790;42.668;23.298;2022-12-10T04:51:57;10.73;;;4.15;;
35675;SDS011;21790;42.668;23.298;2022-12-10T04:57:50;13.57;;;4.82;;
35675;SDS011;21790;42.668;23.298;2022-12-10T06:11:39;14.10;;;5.63;;
35675;SDS011;21790;42.668;23.298;2022-12-10T06:14:12;11.55;;;5.63;;
35675;SDS011;21790;42.668;23.298;2022-12-10T06:25:08;14.50;;;5.78;;
35675;SDS011;21790;42.668;23.298;2022-12-10T13:29:53;17.42;;;7.63;;
35675;SDS011;21790;42.668;23.298;2022-12-10T15:01:30;18.48;;;8.32;;
35675;SDS011;21790;42.668;23.298;2022-12-10T15:04:03;23.95;;;10.95;;
35675;SDS011;21790;42.668;23.298;2022-12-10T15:06:36;25.55;;;9.90;;
35675;SDS011;21790;42.668;23.298;2022-12-10T17:36:16;37.35;;;15.63;;
35675;SDS011;21790;42.668;23.298;2022-12-10T17:38:42;33.08;;;14.43;;
35675;SDS011;21790;42.668;23.298;2022-12-10T17:41:08;42.45;;;14.93;;
35675;SDS011;21790;42.668;23.298;2022-12-10T17:43:36;33.53;;;15.48;;
35675;SDS011;21790;42.668;23.298;2022-12-10T17:46:01;39.80;;;16.33;;
35675;SDS011;21790;42.668;23.298;2022-12-10T17:48:27;43.78;;;19.90;;
35675;SDS011;21790;42.668;23.298;2022-12-10T17:50:53;43.83;;;18.75;;
35675;SDS011;21790;42.668;23.298;2022-12-10T17:53:18;46.40;;;19.02;;
35675;SDS011;21790;42.668;23.298;2022-12-10T17:55:52;51.17;;;17.92;;
35675;SDS011;21790;42.668;23.298;2022-12-10T17:58:23;41.42;;;17.40;;
35675;SDS011;21790;42.668;23.298;2022-12-10T18:00:49;33.92;;;16.92;;
35675;SDS011;21790;42.668;23.298;2022-12-10T18:03:16;43.28;;;18.05;;
35675;SDS011;21790;42.668;23.298;2022-12-10T18:05:42;43.83;;;19.42;;
35675;SDS011;21790;42.668;23.298;2022-12-10T18:08:10;43.50;;;18.70;;
35675;SDS011;21790;42.668;23.298;2022-12-10T18:10:38;45.05;;;19.83;;
35675;SDS011;21790;42.668;23.298;2022-12-10T18:13:04;39.75;;;18.55;;
35675;SDS011;21790;42.668;23.298;2022-12-10T18:15:30;39.40;;;18.65;;
35675;SDS011;21790;42.668;23.298;2022-12-10T18:17:57;54.90;;;22.67;;
35675;SDS011;21790;42.668;23.298;2022-12-10T18:20:25;51.67;;;24.02;;
35675;SDS011;21790;42.668;23.298;2022-12-10T18:22:54;50.42;;;24.50;;
35675;SDS011;21790;42.668;23.298;2022-12-10T18:25:20;51.70;;;24.85;;
35675;SDS011;21790;42.668;23.298;2022-12-10T18:27:46;64.00;;;26.30;;
35675;SDS011;21790;42.668;23.298;2022-12-10T18:30:13;63.55;;;30.33;;
35675;SDS011;21790;42.668;23.298;2022-12-10T18:32:43;50.65;;;26.90;;
35675;SDS011;21790;42.668;23.298;2022-12-10T18:35:09;54.65;;;26.95;;
35675;SDS011;21790;42.668;23.298;2022-12-10T18:37:35;54.60;;;25.45;;
35675;SDS011;21790;42.668;23.298;2022-12-10T18:40:01;61.13;;;27.45;;
35675;SDS011;21790;42.668;23.298;2022-12-10T18:42:27;51.30;;;24.58;;
35675;SDS011;21790;42.668;23.298;2022-12-10T18:44:54;49.42;;;24.67;;
35675;SDS011;21790;42.668;23.298;2022-12-10T18:47:20;56.50;;;25.63;;
35675;SDS011;21790;42.668;23.298;2022-12-10T18:49:45;54.22;;;25.13;;
35675;SDS011;21790;42.668;23.298;2022-12-10T18:52:11;47.67;;;25.70;;
35675;SDS011;21790;42.668;23.298;2022-12-10T18:54:37;59.63;;;28.30;;
35675;SDS011;21790;42.668;23.298;2022-12-10T18:57:02;54.58;;;25.40;;
35675;SDS011;21790;42.668;23.298;2022-12-10T18:59:28;83.00;;;28.58;;
35675;SDS011;21790;42.668;23.298;2022-12-10T19:01:53;64.75;;;27.48;;
35675;SDS011;21790;42.668;23.298;2022-12-10T19:04:19;58.22;;;26.98;;
35675;SDS011;21790;42.668;23.298;2022-12-10T19:06:44;53.97;;;26.65;;
35675;SDS011;21790;42.668;23.298;2022-12-10T19:09:14;64.50;;;31.60;;
35675;SDS011;21790;42.668;23.298;2022-12-10T19:11:41;55.50;;;25.57;;
35675;SDS011;21790;42.668;23.298;2022-12-10T19:14:11;62.28;;;26.83;;
35675;SDS011;21790;42.668;23.298;2022-12-10T19:16:38;55.75;;;25.35;;
35675;SDS011;21790;42.668;23.298;2022-12-10T19:19:04;50.80;;;26.17;;
35675;SDS011;21790;42.668;23.298;2022-12-10T19:21:30;49.38;;;24.83;;
35675;SDS011;21790;42.668;23.298;2022-12-10T19:23:56;55.83;;;25.38;;
35675;SDS011;21790;42.668;23.298;2022-12-10T19:26:23;56.25;;;26.25;;
35675;SDS011;21790;42.668;23.298;2022-12-10T19:28:53;50.35;;;24.00;;
35675;SDS011;21790;42.668;23.298;2022-12-10T19:31:19;49.95;;;23.30;;
35675;SDS011;21790;42.668;23.298;2022-12-10T19:33:45;42.20;;;18.80;;
35675;SDS011;21790;42.668;23.298;2022-12-10T19:36:18;43.83;;;20.38;;
35675;SDS011;21790;42.668;23.298;2022-12-10T19:38:46;34.40;;;17.77;;
35675;SDS011;21790;42.668;23.298;2022-12-10T20:27:35;24.63;;;10.00;;
35675;SDS011;21790;42.668;23.298;2022-12-10T20:30:00;22.20;;;10.65;;
35675;SDS011;21790;42.668;23.298;2022-12-10T20:32:25;23.05;;;10.00;;
35675;SDS011;21790;42.668;23.298;2022-12-10T20:34:51;19.80;;;9.00;;
35675;SDS011;21790;42.668;23.298;2022-12-10T20:37:17;27.25;;;12.40;;
35675;SDS011;21790;42.668;23.298;2022-12-10T20:39:42;30.23;;;11.73;;
35675;SDS011;21790;42.668;23.298;2022-12-10T20:42:08;25.25;;;11.20;;
35675;SDS011;21790;42.668;23.298;2022-12-10T20:44:33;27.98;;;11.00;;
35675;SDS011;21790;42.668;23.298;2022-12-10T20:46:59;28.42;;;12.75;;
35675;SDS011;21790;42.668;23.298;2022-12-10T20:49:25;23.30;;;10.60;;
35675;SDS011;21790;42.668;23.298;2022-12-10T20:51:51;39.00;;;20.60;;
35675;SDS011;21790;42.668;23.298;2022-12-10T20:54:17;31.73;;;15.10;;
35675;SDS011;21790;42.668;23.298;2022-12-10T20:56:42;27.88;;;14.18;;
35675;SDS011;21790;42.668;23.298;2022-12-10T20:59:10;33.65;;;15.40;;
35675;SDS011;21790;42.668;23.298;2022-12-10T21:01:38;39.35;;;15.75;;
35675;SDS011;21790;42.668;23.298;2022-12-10T21:04:03;27.75;;;15.18;;
35675;SDS011;21790;42.668;23.298;2022-12-10T21:06:29;35.05;;;15.38;;
35675;SDS011;21790;42.668;23.298;2022-12-10T21:08:57;44.92;;;17.67;;
35675;SDS011;21790;42.668;23.298;2022-12-10T21:11:23;34.00;;;15.95;;
35675;SDS011;21790;42.668;23.298;2022-12-10T21:13:48;37.05;;;17.23;;
35675;SDS011;21790;42.668;23.298;2022-12-10T21:16:15;37.10;;;16.45;;
35675;SDS011;21790;42.668;23.298;2022-12-10T21:18:43;35.95;;;15.93;;
35675;SDS011;21790;42.668;23.298;2022-12-10T21:21:13;34.75;;;15.35;;
35675;SDS011;21790;42.668;23.298;2022-12-10T21:23:39;32.25;;;14.52;;
35675;SDS011;21790;42.668;23.298;2022-12-10T21:26:05;36.85;;;16.20;;
35675;SDS011;21790;42.668;23.298;2022-12-10T21:28:32;40.50;;;15.68;;
35675;SDS011;21790;42.668;23.298;2022-12-10T21:30:57;27.35;;;14.20;;
35675;SDS011;21790;42.668;23.298;2022-12-10T21:33:24;34.50;;;16.67;;
35675;SDS011;21790;42.668;23.298;2022-12-10T21:35:50;37.25;;;16.90;;
35675;SDS011;21790;42.668;23.298;2022-12-10T21:38:17;34.22;;;15.48;;
35675;SDS011;21790;42.668;23.298;2022-12-10T21:40:43;37.88;;;16.15;;
35675;SDS011;21790;42.668;23.298;2022-12-10T21:43:14;41.72;;;16.73;;
35675;SDS011;21790;42.668;23.298;2022-12-10T21:45:42;33.40;;;15.30;;
35675;SDS011;21790;42.668;23.298;2022-12-10T21:48:08;45.50;;;16.83;;
35675;SDS011;21790;42.668;23.298;2022-12-10T21:50:36;31.05;;;15.57;;
35675;SDS011;21790;42.668;23.298;2022-12-10T21:53:01;33.58;;;16.17;;
35675;SDS011;21790;42.668;23.298;2022-12-10T21:55:27;30.52;;;14.50;;
35675;SDS011;21790;42.668;23.298;2022-12-10T21:57:52;31.83;;;16.67;;
35675;SDS011;21790;42.668;23.298;2022-12-10T22:00:18;34.45;;;17.45;;
35675;SDS011;21790;42.668;23.298;2022-12-10T22:02:44;39.72;;;16.67;;
35675;SDS011;21790;42.668;23.298;2022-12-10T22:05:10;33.13;;;16.27;;
35675;SDS011;21790;42.668;23.298;2022-12-10T22:07:37;37.50;;;15.95;;
35675;SDS011;21790;42.668;23.298;2022-12-10T22:10:04;31.15;;;15.23;;
35675;SDS011;21790;42.668;23.298;2022-12-10T22:12:32;40.15;;;15.05;;
35675;SDS011;21790;42.668;23.298;2022-12-10T22:14:58;40.97;;;16.85;;
35675;SDS011;21790;42.668;23.298;2022-12-10T22:17:24;31.55;;;15.10;;
35675;SDS011;21790;42.668;23.298;2022-12-10T22:19:50;35.55;;;15.95;;
35675;SDS011;21790;42.668;23.298;2022-12-10T22:22:15;34.13;;;15.45;;
35675;SDS011;21790;42.668;23.298;2022-12-10T22:24:41;32.63;;;16.00;;
35675;SDS011;21790;42.668;23.298;2022-12-10T22:27:06;43.05;;;16.48;;
35675;SDS011;21790;42.668;23.298;2022-12-10T22:36:49;29.88;;;15.45;;
35675;SDS011;21790;42.668;23.298;2022-12-10T22:39:15;30.58;;;13.82;;
35675;SDS011;21790;42.668;23.298;2022-12-10T22:41:41;31.55;;;13.63;;
35675;SDS011;21790;42.668;23.298;2022-12-10T22:44:06;29.88;;;13.98;;
35675;SDS011;21790;42.668;23.298;2022-12-10T22:46:32;32.55;;;13.82;;
35675;SDS011;21790;42.668;23.298;2022-12-10T22:48:58;33.42;;;13.68;;
35675;SDS011;21790;42.668;23.298;2022-12-10T22:51:23;25.63;;;12.60;;
35675;SDS011;21790;42.668;23.298;2022-12-10T22:53:49;27.58;;;13.18;;
35675;SDS011;21790;42.668;23.298;2022-12-10T22:56:15;171.45;;;67.60;;
35675;SDS011;21790;42.668;23.298;2022-12-10T23:20:37;35.75;;;17.38;;
35675;SDS011;21790;42.668;23.298;2022-12-10T23:29:35;38.95;;;17.60;;
35675;SDS011;21790;42.668;23.298;2022-12-10T23:35:23;34.35;;;16.45;;
35675;SDS011;21790;42.668;23.298;2022-12-10T23:41:22;38.58;;;17.98;;
35675;SDS011;21790;42.668;23.298;2022-12-10T23:47:17;35.15;;;18.25;;
35675;SDS011;21790;42.668;23.298;2022-12-10T23:55:32;34.05;;;16.98;;
